sensor_id;sensor_type;location;lat;lon;timestamp;P1;durP1;ratioP1;P2;durP2;ratioP2
78346;SDS011;67803;41.330;69.282;2023-07-28T00:01:49;7.30;;;3.13;;
78346;SDS011;67803;41.330;69.282;2023-07-28T00:04:19;8.85;;;3.08;;
78346;SDS011;67803;41.330;69.282;2023-07-28T00:06:50;8.43;;;3.53;;
78346;SDS011;67803;41.330;69.282;2023-07-28T00:09:20;6.00;;;2.70;;
78346;SDS011;67803;41.330;69.282;2023-07-28T00:11:52;6.53;;;2.50;;
78346;SDS011;67803;41.330;69.282;2023-07-28T00:14:23;8.60;;;2.70;;
78346;SDS011;67803;41.330;69.282;2023-07-28T00:16:55;6.85;;;2.80;;
78346;SDS011;67803;41.330;69.282;2023-07-28T00:19:26;10.80;;;2.60;;
78346;SDS011;67803;41.330;69.282;2023-07-28T00:21:57;5.93;;;2.15;;
78346;SDS011;67803;41.330;69.282;2023-07-28T00:24:27;6.85;;;2.35;;
78346;SDS011;67803;41.330;69.282;2023-07-28T00:26:58;5.95;;;1.85;;
78346;SDS011;67803;41.330;69.282;2023-07-28T00:29:28;7.32;;;2.40;;
78346;SDS011;67803;41.330;69.282;2023-07-28T00:31:58;8.40;;;2.50;;
78346;SDS011;67803;41.330;69.282;2023-07-28T00:34:29;10.98;;;3.08;;
78346;SDS011;67803;41.330;69.282;2023-07-28T00:36:59;11.70;;;2.33;;
78346;SDS011;67803;41.330;69.282;2023-07-28T00:39:30;11.38;;;2.78;;
78346;SDS011;67803;41.330;69.282;2023-07-28T00:42:00;9.13;;;2.28;;
78346;SDS011;67803;41.330;69.282;2023-07-28T00:44:31;6.75;;;2.47;;
78346;SDS011;67803;41.330;69.282;2023-07-28T00:47:01;6.57;;;2.20;;
78346;SDS011;67803;41.330;69.282;2023-07-28T00:49:32;7.78;;;2.33;;
78346;SDS011;67803;41.330;69.282;2023-07-28T00:52:04;5.90;;;2.40;;
78346;SDS011;67803;41.330;69.282;2023-07-28T00:54:36;5.25;;;1.95;;
78346;SDS011;67803;41.330;69.282;2023-07-28T00:57:07;11.82;;;3.05;;
78346;SDS011;67803;41.330;69.282;2023-07-28T00:59:37;12.18;;;2.60;;
78346;SDS011;67803;41.330;69.282;2023-07-28T01:02:08;6.22;;;2.80;;
78346;SDS011;67803;41.330;69.282;2023-07-28T01:04:38;8.32;;;2.45;;
78346;SDS011;67803;41.330;69.282;2023-07-28T01:07:10;9.98;;;2.75;;
78346;SDS011;67803;41.330;69.282;2023-07-28T01:09:48;9.23;;;2.75;;
78346;SDS011;67803;41.330;69.282;2023-07-28T01:12:20;6.97;;;2.70;;
78346;SDS011;67803;41.330;69.282;2023-07-28T01:14:51;9.30;;;2.92;;
78346;SDS011;67803;41.330;69.282;2023-07-28T01:17:21;12.68;;;2.63;;
78346;SDS011;67803;41.330;69.282;2023-07-28T01:19:54;10.48;;;3.22;;
78346;SDS011;67803;41.330;69.282;2023-07-28T01:25:14;9.30;;;2.97;;
78346;SDS011;67803;41.330;69.282;2023-07-28T01:27:45;9.57;;;2.90;;
78346;SDS011;67803;41.330;69.282;2023-07-28T01:30:16;11.63;;;3.38;;
78346;SDS011;67803;41.330;69.282;2023-07-28T01:32:47;11.93;;;3.22;;
78346;SDS011;67803;41.330;69.282;2023-07-28T01:35:18;7.90;;;3.15;;
78346;SDS011;67803;41.330;69.282;2023-07-28T01:37:49;13.00;;;4.07;;
78346;SDS011;67803;41.330;69.282;2023-07-28T01:40:22;10.43;;;3.85;;
78346;SDS011;67803;41.330;69.282;2023-07-28T01:42:52;12.68;;;4.70;;
78346;SDS011;67803;41.330;69.282;2023-07-28T01:45:23;19.52;;;6.55;;
78346;SDS011;67803;41.330;69.282;2023-07-28T01:47:53;15.43;;;4.97;;
78346;SDS011;67803;41.330;69.282;2023-07-28T01:50:24;14.00;;;6.22;;
78346;SDS011;67803;41.330;69.282;2023-07-28T01:52:54;22.48;;;7.22;;
78346;SDS011;67803;41.330;69.282;2023-07-28T01:55:25;20.35;;;6.75;;
78346;SDS011;67803;41.330;69.282;2023-07-28T01:57:56;19.42;;;7.03;;
78346;SDS011;67803;41.330;69.282;2023-07-28T02:00:27;28.00;;;7.93;;
78346;SDS011;67803;41.330;69.282;2023-07-28T02:02:58;23.27;;;8.10;;
78346;SDS011;67803;41.330;69.282;2023-07-28T02:05:31;23.15;;;8.75;;
78346;SDS011;67803;41.330;69.282;2023-07-28T02:08:02;29.58;;;8.80;;
78346;SDS011;67803;41.330;69.282;2023-07-28T02:10:32;24.50;;;8.95;;
78346;SDS011;67803;41.330;69.282;2023-07-28T02:13:03;21.70;;;8.35;;
78346;SDS011;67803;41.330;69.282;2023-07-28T02:15:33;24.98;;;8.60;;
78346;SDS011;67803;41.330;69.282;2023-07-28T02:18:04;21.13;;;8.02;;
78346;SDS011;67803;41.330;69.282;2023-07-28T02:20:34;21.45;;;8.07;;
78346;SDS011;67803;41.330;69.282;2023-07-28T02:23:05;23.90;;;7.60;;
78346;SDS011;67803;41.330;69.282;2023-07-28T02:25:36;20.52;;;7.60;;
78346;SDS011;67803;41.330;69.282;2023-07-28T02:28:08;20.42;;;7.63;;
78346;SDS011;67803;41.330;69.282;2023-07-28T02:30:38;28.63;;;8.00;;
78346;SDS011;67803;41.330;69.282;2023-07-28T02:33:09;25.92;;;7.35;;
78346;SDS011;67803;41.330;69.282;2023-07-28T02:35:39;14.48;;;7.00;;
78346;SDS011;67803;41.330;69.282;2023-07-28T02:38:09;22.73;;;6.95;;
78346;SDS011;67803;41.330;69.282;2023-07-28T02:40:40;12.95;;;6.63;;
78346;SDS011;67803;41.330;69.282;2023-07-28T02:43:10;20.25;;;7.57;;
78346;SDS011;67803;41.330;69.282;2023-07-28T02:45:41;20.27;;;7.68;;
78346;SDS011;67803;41.330;69.282;2023-07-28T02:48:12;21.05;;;8.05;;
78346;SDS011;67803;41.330;69.282;2023-07-28T02:50:45;15.70;;;6.78;;
78346;SDS011;67803;41.330;69.282;2023-07-28T02:53:17;20.75;;;7.90;;
78346;SDS011;67803;41.330;69.282;2023-07-28T02:55:48;22.20;;;7.25;;
78346;SDS011;67803;41.330;69.282;2023-07-28T02:58:18;19.13;;;7.20;;
78346;SDS011;67803;41.330;69.282;2023-07-28T03:00:51;22.77;;;7.45;;
78346;SDS011;67803;41.330;69.282;2023-07-28T03:03:21;15.95;;;6.20;;
78346;SDS011;67803;41.330;69.282;2023-07-28T03:05:52;17.10;;;7.30;;
78346;SDS011;67803;41.330;69.282;2023-07-28T03:08:23;20.25;;;7.53;;
78346;SDS011;67803;41.330;69.282;2023-07-28T03:10:58;17.30;;;7.22;;
78346;SDS011;67803;41.330;69.282;2023-07-28T03:13:28;18.90;;;7.22;;
78346;SDS011;67803;41.330;69.282;2023-07-28T03:15:59;17.20;;;6.60;;
78346;SDS011;67803;41.330;69.282;2023-07-28T03:18:29;14.63;;;6.65;;
78346;SDS011;67803;41.330;69.282;2023-07-28T03:21:00;22.60;;;7.07;;
78346;SDS011;67803;41.330;69.282;2023-07-28T03:23:30;19.77;;;7.25;;
78346;SDS011;67803;41.330;69.282;2023-07-28T03:26:01;16.30;;;7.53;;
78346;SDS011;67803;41.330;69.282;2023-07-28T03:28:31;19.85;;;6.78;;
78346;SDS011;67803;41.330;69.282;2023-07-28T03:31:02;21.60;;;7.43;;
78346;SDS011;67803;41.330;69.282;2023-07-28T03:33:32;17.27;;;7.00;;
78346;SDS011;67803;41.330;69.282;2023-07-28T03:36:03;14.20;;;7.32;;
78346;SDS011;67803;41.330;69.282;2023-07-28T03:38:34;13.30;;;6.45;;
78346;SDS011;67803;41.330;69.282;2023-07-28T03:41:04;20.10;;;7.90;;
78346;SDS011;67803;41.330;69.282;2023-07-28T03:43:36;17.88;;;7.43;;
78346;SDS011;67803;41.330;69.282;2023-07-28T03:46:06;27.90;;;7.85;;
78346;SDS011;67803;41.330;69.282;2023-07-28T03:48:37;16.05;;;6.85;;
78346;SDS011;67803;41.330;69.282;2023-07-28T03:51:07;21.33;;;7.45;;
78346;SDS011;67803;41.330;69.282;2023-07-28T03:53:38;21.00;;;7.30;;
78346;SDS011;67803;41.330;69.282;2023-07-28T03:56:08;50.10;;;9.77;;
78346;SDS011;67803;41.330;69.282;2023-07-28T03:58:39;20.20;;;6.65;;
78346;SDS011;67803;41.330;69.282;2023-07-28T04:01:09;17.08;;;6.90;;
78346;SDS011;67803;41.330;69.282;2023-07-28T04:03:40;17.58;;;7.65;;
78346;SDS011;67803;41.330;69.282;2023-07-28T04:06:10;17.92;;;6.45;;
78346;SDS011;67803;41.330;69.282;2023-07-28T04:08:41;21.75;;;7.07;;
78346;SDS011;67803;41.330;69.282;2023-07-28T04:11:12;20.15;;;6.22;;
78346;SDS011;67803;41.330;69.282;2023-07-28T04:13:42;15.95;;;6.80;;
78346;SDS011;67803;41.330;69.282;2023-07-28T04:16:13;15.63;;;6.40;;
78346;SDS011;67803;41.330;69.282;2023-07-28T04:18:43;17.27;;;6.50;;
78346;SDS011;67803;41.330;69.282;2023-07-28T04:21:14;17.23;;;6.55;;
78346;SDS011;67803;41.330;69.282;2023-07-28T04:23:44;17.88;;;6.25;;
78346;SDS011;67803;41.330;69.282;2023-07-28T04:26:15;16.92;;;5.63;;
78346;SDS011;67803;41.330;69.282;2023-07-28T04:28:46;18.45;;;7.13;;
78346;SDS011;67803;41.330;69.282;2023-07-28T04:31:16;21.65;;;6.43;;
78346;SDS011;67803;41.330;69.282;2023-07-28T04:33:47;12.70;;;6.25;;
78346;SDS011;67803;41.330;69.282;2023-07-28T04:36:17;18.40;;;6.47;;
78346;SDS011;67803;41.330;69.282;2023-07-28T04:38:48;15.82;;;6.00;;
78346;SDS011;67803;41.330;69.282;2023-07-28T04:41:19;17.30;;;7.90;;
78346;SDS011;67803;41.330;69.282;2023-07-28T04:43:49;18.63;;;7.47;;
78346;SDS011;67803;41.330;69.282;2023-07-28T04:46:20;22.67;;;8.82;;
78346;SDS011;67803;41.330;69.282;2023-07-28T04:48:50;20.20;;;9.05;;
78346;SDS011;67803;41.330;69.282;2023-07-28T04:51:21;25.92;;;9.02;;
78346;SDS011;67803;41.330;69.282;2023-07-28T04:53:51;22.33;;;8.40;;
78346;SDS011;67803;41.330;69.282;2023-07-28T04:56:22;26.75;;;7.95;;
78346;SDS011;67803;41.330;69.282;2023-07-28T04:58:52;22.67;;;7.85;;
78346;SDS011;67803;41.330;69.282;2023-07-28T05:01:23;21.38;;;7.72;;
78346;SDS011;67803;41.330;69.282;2023-07-28T05:03:53;21.05;;;7.75;;
78346;SDS011;67803;41.330;69.282;2023-07-28T05:06:24;19.90;;;7.05;;
78346;SDS011;67803;41.330;69.282;2023-07-28T05:08:54;15.70;;;6.07;;
78346;SDS011;67803;41.330;69.282;2023-07-28T05:11:25;19.67;;;7.55;;
78346;SDS011;67803;41.330;69.282;2023-07-28T05:13:55;31.95;;;8.85;;
78346;SDS011;67803;41.330;69.282;2023-07-28T05:16:25;32.15;;;7.72;;
78346;SDS011;67803;41.330;69.282;2023-07-28T05:18:56;25.83;;;6.18;;
78346;SDS011;67803;41.330;69.282;2023-07-28T05:21:26;32.13;;;6.93;;
78346;SDS011;67803;41.330;69.282;2023-07-28T05:23:57;50.47;;;8.38;;
78346;SDS011;67803;41.330;69.282;2023-07-28T05:26:27;17.83;;;5.53;;
78346;SDS011;67803;41.330;69.282;2023-07-28T05:28:58;24.40;;;6.03;;
78346;SDS011;67803;41.330;69.282;2023-07-28T05:31:28;14.20;;;4.90;;
78346;SDS011;67803;41.330;69.282;2023-07-28T05:33:59;16.05;;;5.03;;
78346;SDS011;67803;41.330;69.282;2023-07-28T05:36:29;13.20;;;3.67;;
78346;SDS011;67803;41.330;69.282;2023-07-28T05:39:00;10.85;;;4.13;;
78346;SDS011;67803;41.330;69.282;2023-07-28T05:41:30;10.77;;;4.20;;
78346;SDS011;67803;41.330;69.282;2023-07-28T05:44:01;13.40;;;4.20;;
78346;SDS011;67803;41.330;69.282;2023-07-28T05:46:31;12.18;;;4.15;;
78346;SDS011;67803;41.330;69.282;2023-07-28T05:49:02;11.43;;;4.57;;
78346;SDS011;67803;41.330;69.282;2023-07-28T05:51:32;10.18;;;3.20;;
78346;SDS011;67803;41.330;69.282;2023-07-28T05:54:03;11.02;;;3.70;;
78346;SDS011;67803;41.330;69.282;2023-07-28T05:56:35;13.23;;;3.50;;
78346;SDS011;67803;41.330;69.282;2023-07-28T05:59:05;9.82;;;2.92;;
78346;SDS011;67803;41.330;69.282;2023-07-28T06:01:36;12.13;;;3.05;;
78346;SDS011;67803;41.330;69.282;2023-07-28T06:04:06;12.00;;;2.25;;
78346;SDS011;67803;41.330;69.282;2023-07-28T06:06:37;7.30;;;2.38;;
78346;SDS011;67803;41.330;69.282;2023-07-28T06:09:07;10.13;;;3.35;;
78346;SDS011;67803;41.330;69.282;2023-07-28T06:11:38;8.52;;;2.58;;
78346;SDS011;67803;41.330;69.282;2023-07-28T06:14:08;13.60;;;3.15;;
78346;SDS011;67803;41.330;69.282;2023-07-28T06:16:38;16.88;;;3.35;;
78346;SDS011;67803;41.330;69.282;2023-07-28T06:19:09;11.10;;;3.42;;
78346;SDS011;67803;41.330;69.282;2023-07-28T06:21:40;13.68;;;3.08;;
78346;SDS011;67803;41.330;69.282;2023-07-28T06:24:10;9.68;;;3.05;;
78346;SDS011;67803;41.330;69.282;2023-07-28T06:26:41;8.85;;;3.00;;
78346;SDS011;67803;41.330;69.282;2023-07-28T06:29:11;14.68;;;3.35;;
78346;SDS011;67803;41.330;69.282;2023-07-28T06:31:42;10.25;;;3.00;;
78346;SDS011;67803;41.330;69.282;2023-07-28T06:34:12;10.05;;;3.25;;
78346;SDS011;67803;41.330;69.282;2023-07-28T06:36:43;9.88;;;2.58;;
78346;SDS011;67803;41.330;69.282;2023-07-28T06:39:13;9.00;;;2.67;;
78346;SDS011;67803;41.330;69.282;2023-07-28T06:41:43;26.10;;;3.63;;
78346;SDS011;67803;41.330;69.282;2023-07-28T06:44:14;16.02;;;3.30;;
78346;SDS011;67803;41.330;69.282;2023-07-28T06:46:45;12.13;;;2.70;;
78346;SDS011;67803;41.330;69.282;2023-07-28T06:49:15;8.88;;;2.78;;
78346;SDS011;67803;41.330;69.282;2023-07-28T06:51:46;12.90;;;2.50;;
78346;SDS011;67803;41.330;69.282;2023-07-28T06:54:16;7.75;;;2.72;;
78346;SDS011;67803;41.330;69.282;2023-07-28T06:56:47;13.02;;;2.80;;
78346;SDS011;67803;41.330;69.282;2023-07-28T06:59:17;9.88;;;2.53;;
78346;SDS011;67803;41.330;69.282;2023-07-28T07:01:48;9.98;;;2.40;;
78346;SDS011;67803;41.330;69.282;2023-07-28T07:04:18;10.32;;;2.40;;
78346;SDS011;67803;41.330;69.282;2023-07-28T07:06:49;15.57;;;2.75;;
78346;SDS011;67803;41.330;69.282;2023-07-28T07:09:19;7.85;;;2.20;;
78346;SDS011;67803;41.330;69.282;2023-07-28T07:11:50;7.85;;;2.42;;
78346;SDS011;67803;41.330;69.282;2023-07-28T07:14:20;11.60;;;3.13;;
78346;SDS011;67803;41.330;69.282;2023-07-28T07:16:51;10.18;;;2.53;;
78346;SDS011;67803;41.330;69.282;2023-07-28T07:19:21;6.38;;;2.40;;
78346;SDS011;67803;41.330;69.282;2023-07-28T07:21:52;12.40;;;3.03;;
78346;SDS011;67803;41.330;69.282;2023-07-28T07:24:22;11.13;;;2.55;;
78346;SDS011;67803;41.330;69.282;2023-07-28T07:26:53;10.38;;;2.38;;
78346;SDS011;67803;41.330;69.282;2023-07-28T07:29:24;9.63;;;2.35;;
78346;SDS011;67803;41.330;69.282;2023-07-28T07:31:54;9.00;;;2.08;;
78346;SDS011;67803;41.330;69.282;2023-07-28T07:34:26;13.85;;;2.60;;
78346;SDS011;67803;41.330;69.282;2023-07-28T07:36:56;29.30;;;3.17;;
78346;SDS011;67803;41.330;69.282;2023-07-28T07:39:27;11.00;;;2.35;;
78346;SDS011;67803;41.330;69.282;2023-07-28T07:41:57;8.30;;;2.33;;
78346;SDS011;67803;41.330;69.282;2023-07-28T07:44:28;8.80;;;2.70;;
78346;SDS011;67803;41.330;69.282;2023-07-28T07:47:01;8.02;;;2.40;;
78346;SDS011;67803;41.330;69.282;2023-07-28T07:49:41;22.13;;;2.95;;
78346;SDS011;67803;41.330;69.282;2023-07-28T07:52:12;8.40;;;2.88;;
78346;SDS011;67803;41.330;69.282;2023-07-28T07:54:43;17.70;;;2.80;;
78346;SDS011;67803;41.330;69.282;2023-07-28T07:57:14;8.05;;;2.55;;
78346;SDS011;67803;41.330;69.282;2023-07-28T07:59:44;13.85;;;2.40;;
78346;SDS011;67803;41.330;69.282;2023-07-28T08:02:15;9.20;;;2.33;;
78346;SDS011;67803;41.330;69.282;2023-07-28T08:04:45;9.02;;;2.15;;
78346;SDS011;67803;41.330;69.282;2023-07-28T08:07:16;8.18;;;2.28;;
78346;SDS011;67803;41.330;69.282;2023-07-28T08:09:47;12.32;;;2.72;;
78346;SDS011;67803;41.330;69.282;2023-07-28T08:12:17;11.05;;;2.53;;
78346;SDS011;67803;41.330;69.282;2023-07-28T08:14:48;9.70;;;2.10;;
78346;SDS011;67803;41.330;69.282;2023-07-28T08:17:19;10.88;;;2.22;;
78346;SDS011;67803;41.330;69.282;2023-07-28T08:19:49;9.27;;;2.60;;
78346;SDS011;67803;41.330;69.282;2023-07-28T08:22:20;13.82;;;2.72;;
78346;SDS011;67803;41.330;69.282;2023-07-28T08:24:50;12.98;;;2.67;;
78346;SDS011;67803;41.330;69.282;2023-07-28T08:27:20;6.70;;;2.50;;
78346;SDS011;67803;41.330;69.282;2023-07-28T08:29:51;10.55;;;2.53;;
78346;SDS011;67803;41.330;69.282;2023-07-28T08:32:21;7.85;;;2.58;;
78346;SDS011;67803;41.330;69.282;2023-07-28T08:34:52;9.30;;;2.70;;
78346;SDS011;67803;41.330;69.282;2023-07-28T08:37:22;16.73;;;2.95;;
78346;SDS011;67803;41.330;69.282;2023-07-28T08:39:53;9.93;;;2.50;;
78346;SDS011;67803;41.330;69.282;2023-07-28T08:42:24;13.50;;;2.88;;
78346;SDS011;67803;41.330;69.282;2023-07-28T08:44:55;15.38;;;3.05;;
78346;SDS011;67803;41.330;69.282;2023-07-28T08:47:25;10.52;;;2.60;;
78346;SDS011;67803;41.330;69.282;2023-07-28T08:49:59;11.60;;;2.72;;
78346;SDS011;67803;41.330;69.282;2023-07-28T08:52:29;8.90;;;2.40;;
78346;SDS011;67803;41.330;69.282;2023-07-28T08:55:00;12.38;;;2.55;;
78346;SDS011;67803;41.330;69.282;2023-07-28T08:57:31;10.60;;;3.08;;
78346;SDS011;67803;41.330;69.282;2023-07-28T09:00:08;9.27;;;2.72;;
78346;SDS011;67803;41.330;69.282;2023-07-28T09:02:42;8.48;;;2.50;;
78346;SDS011;67803;41.330;69.282;2023-07-28T09:05:17;10.93;;;2.58;;
78346;SDS011;67803;41.330;69.282;2023-07-28T09:07:49;8.68;;;2.80;;
78346;SDS011;67803;41.330;69.282;2023-07-28T09:10:22;9.93;;;2.78;;
78346;SDS011;67803;41.330;69.282;2023-07-28T09:12:52;10.73;;;2.58;;
78346;SDS011;67803;41.330;69.282;2023-07-28T09:15:23;13.98;;;2.63;;
78346;SDS011;67803;41.330;69.282;2023-07-28T09:17:54;10.32;;;2.60;;
78346;SDS011;67803;41.330;69.282;2023-07-28T09:20:24;11.98;;;2.70;;
78346;SDS011;67803;41.330;69.282;2023-07-28T09:23:03;11.02;;;2.97;;
78346;SDS011;67803;41.330;69.282;2023-07-28T09:25:35;10.73;;;3.25;;
78346;SDS011;67803;41.330;69.282;2023-07-28T09:28:08;8.85;;;2.65;;
78346;SDS011;67803;41.330;69.282;2023-07-28T09:30:46;10.45;;;3.08;;
78346;SDS011;67803;41.330;69.282;2023-07-28T09:33:29;7.03;;;2.35;;
78346;SDS011;67803;41.330;69.282;2023-07-28T09:36:07;9.13;;;2.58;;
78346;SDS011;67803;41.330;69.282;2023-07-28T09:38:39;6.78;;;2.65;;
78346;SDS011;67803;41.330;69.282;2023-07-28T09:41:13;12.43;;;2.95;;
78346;SDS011;67803;41.330;69.282;2023-07-28T09:43:43;10.20;;;3.03;;
78346;SDS011;67803;41.330;69.282;2023-07-28T09:46:15;10.73;;;3.42;;
78346;SDS011;67803;41.330;69.282;2023-07-28T09:48:47;10.98;;;3.10;;
78346;SDS011;67803;41.330;69.282;2023-07-28T09:51:18;10.00;;;3.10;;
78346;SDS011;67803;41.330;69.282;2023-07-28T09:53:55;12.40;;;3.28;;
78346;SDS011;67803;41.330;69.282;2023-07-28T09:56:27;13.65;;;2.88;;
78346;SDS011;67803;41.330;69.282;2023-07-28T09:59:00;11.13;;;2.70;;
78346;SDS011;67803;41.330;69.282;2023-07-28T10:01:33;9.02;;;3.05;;
78346;SDS011;67803;41.330;69.282;2023-07-28T10:04:04;10.52;;;2.80;;
78346;SDS011;67803;41.330;69.282;2023-07-28T10:06:35;8.02;;;2.70;;
78346;SDS011;67803;41.330;69.282;2023-07-28T10:09:07;9.45;;;2.83;;
78346;SDS011;67803;41.330;69.282;2023-07-28T10:11:41;8.15;;;2.45;;
78346;SDS011;67803;41.330;69.282;2023-07-28T10:14:12;9.05;;;2.80;;
78346;SDS011;67803;41.330;69.282;2023-07-28T10:16:55;8.45;;;2.97;;
78346;SDS011;67803;41.330;69.282;2023-07-28T10:19:26;8.70;;;2.60;;
78346;SDS011;67803;41.330;69.282;2023-07-28T10:22:00;6.18;;;2.67;;
78346;SDS011;67803;41.330;69.282;2023-07-28T10:24:49;9.63;;;2.45;;
78346;SDS011;67803;41.330;69.282;2023-07-28T10:30:02;21.25;;;2.97;;
78346;SDS011;67803;41.330;69.282;2023-07-28T10:32:39;10.50;;;2.55;;
78346;SDS011;67803;41.330;69.282;2023-07-28T10:42:54;28.35;;;3.42;;
78346;SDS011;67803;41.330;69.282;2023-07-28T10:45:25;12.38;;;2.92;;
78346;SDS011;67803;41.330;69.282;2023-07-28T10:47:57;5.82;;;2.70;;
78346;SDS011;67803;41.330;69.282;2023-07-28T10:50:31;8.68;;;2.70;;
78346;SDS011;67803;41.330;69.282;2023-07-28T10:53:01;12.20;;;2.92;;
78346;SDS011;67803;41.330;69.282;2023-07-28T10:55:32;8.50;;;2.55;;
78346;SDS011;67803;41.330;69.282;2023-07-28T10:58:03;13.07;;;2.90;;
78346;SDS011;67803;41.330;69.282;2023-07-28T11:00:34;9.23;;;2.63;;
78346;SDS011;67803;41.330;69.282;2023-07-28T11:03:05;8.18;;;2.75;;
78346;SDS011;67803;41.330;69.282;2023-07-28T11:05:35;11.23;;;2.60;;
78346;SDS011;67803;41.330;69.282;2023-07-28T11:08:05;15.52;;;2.80;;
78346;SDS011;67803;41.330;69.282;2023-07-28T11:10:37;8.70;;;2.00;;
78346;SDS011;67803;41.330;69.282;2023-07-28T11:13:08;10.43;;;3.22;;
78346;SDS011;67803;41.330;69.282;2023-07-28T11:15:38;7.93;;;2.80;;
78346;SDS011;67803;41.330;69.282;2023-07-28T11:18:09;12.07;;;2.65;;
78346;SDS011;67803;41.330;69.282;2023-07-28T11:20:40;7.82;;;3.28;;
78346;SDS011;67803;41.330;69.282;2023-07-28T11:23:13;10.02;;;2.90;;
78346;SDS011;67803;41.330;69.282;2023-07-28T11:25:44;11.65;;;2.88;;
78346;SDS011;67803;41.330;69.282;2023-07-28T11:28:14;19.63;;;3.30;;
78346;SDS011;67803;41.330;69.282;2023-07-28T11:30:45;22.75;;;3.30;;
78346;SDS011;67803;41.330;69.282;2023-07-28T11:33:17;9.73;;;2.90;;
78346;SDS011;67803;41.330;69.282;2023-07-28T11:35:49;10.38;;;2.63;;
78346;SDS011;67803;41.330;69.282;2023-07-28T11:38:19;11.23;;;2.63;;
78346;SDS011;67803;41.330;69.282;2023-07-28T11:40:50;9.15;;;2.60;;
78346;SDS011;67803;41.330;69.282;2023-07-28T11:43:22;8.55;;;2.85;;
78346;SDS011;67803;41.330;69.282;2023-07-28T11:45:53;8.38;;;2.70;;
78346;SDS011;67803;41.330;69.282;2023-07-28T11:48:24;9.73;;;3.00;;
78346;SDS011;67803;41.330;69.282;2023-07-28T11:50:59;10.27;;;2.67;;
78346;SDS011;67803;41.330;69.282;2023-07-28T11:53:32;6.15;;;2.88;;
78346;SDS011;67803;41.330;69.282;2023-07-28T11:56:03;6.55;;;2.63;;
78346;SDS011;67803;41.330;69.282;2023-07-28T11:58:33;6.65;;;2.50;;
78346;SDS011;67803;41.330;69.282;2023-07-28T12:01:07;12.18;;;2.47;;
78346;SDS011;67803;41.330;69.282;2023-07-28T12:03:37;6.05;;;2.75;;
78346;SDS011;67803;41.330;69.282;2023-07-28T12:06:08;8.10;;;2.60;;
78346;SDS011;67803;41.330;69.282;2023-07-28T12:08:40;7.97;;;2.50;;
78346;SDS011;67803;41.330;69.282;2023-07-28T12:11:13;11.10;;;2.80;;
78346;SDS011;67803;41.330;69.282;2023-07-28T12:13:47;7.40;;;2.58;;
78346;SDS011;67803;41.330;69.282;2023-07-28T12:19:06;9.38;;;2.83;;
78346;SDS011;67803;41.330;69.282;2023-07-28T12:21:37;20.48;;;3.25;;
78346;SDS011;67803;41.330;69.282;2023-07-28T12:24:07;12.65;;;3.10;;
78346;SDS011;67803;41.330;69.282;2023-07-28T12:26:38;12.52;;;2.97;;
78346;SDS011;67803;41.330;69.282;2023-07-28T12:29:09;9.52;;;2.50;;
78346;SDS011;67803;41.330;69.282;2023-07-28T12:31:39;10.70;;;2.60;;
78346;SDS011;67803;41.330;69.282;2023-07-28T12:34:10;9.32;;;2.72;;
78346;SDS011;67803;41.330;69.282;2023-07-28T12:36:40;8.52;;;2.88;;
78346;SDS011;67803;41.330;69.282;2023-07-28T12:39:10;9.32;;;2.42;;
78346;SDS011;67803;41.330;69.282;2023-07-28T12:41:41;7.13;;;2.20;;
78346;SDS011;67803;41.330;69.282;2023-07-28T12:44:11;9.60;;;2.70;;
78346;SDS011;67803;41.330;69.282;2023-07-28T12:46:42;9.50;;;2.42;;
78346;SDS011;67803;41.330;69.282;2023-07-28T12:49:13;6.70;;;2.45;;
78346;SDS011;67803;41.330;69.282;2023-07-28T12:51:45;10.38;;;2.70;;
78346;SDS011;67803;41.330;69.282;2023-07-28T12:54:15;12.13;;;3.50;;
78346;SDS011;67803;41.330;69.282;2023-07-28T12:56:45;15.25;;;3.53;;
78346;SDS011;67803;41.330;69.282;2023-07-28T12:59:16;12.82;;;3.92;;
78346;SDS011;67803;41.330;69.282;2023-07-28T13:01:47;10.75;;;3.60;;
78346;SDS011;67803;41.330;69.282;2023-07-28T13:04:17;10.20;;;3.28;;
78346;SDS011;67803;41.330;69.282;2023-07-28T13:06:48;12.95;;;2.97;;
78346;SDS011;67803;41.330;69.282;2023-07-28T13:09:18;8.50;;;3.35;;
78346;SDS011;67803;41.330;69.282;2023-07-28T13:11:49;9.38;;;2.88;;
78346;SDS011;67803;41.330;69.282;2023-07-28T13:14:20;6.93;;;2.40;;
78346;SDS011;67803;41.330;69.282;2023-07-28T13:16:51;9.30;;;2.85;;
78346;SDS011;67803;41.330;69.282;2023-07-28T13:19:21;12.02;;;3.53;;
78346;SDS011;67803;41.330;69.282;2023-07-28T13:21:52;10.80;;;3.10;;
78346;SDS011;67803;41.330;69.282;2023-07-28T13:24:23;19.45;;;3.40;;
78346;SDS011;67803;41.330;69.282;2023-07-28T13:26:53;13.43;;;3.05;;
78346;SDS011;67803;41.330;69.282;2023-07-28T13:29:24;9.77;;;2.47;;
78346;SDS011;67803;41.330;69.282;2023-07-28T13:31:59;9.88;;;2.83;;
78346;SDS011;67803;41.330;69.282;2023-07-28T13:34:32;8.65;;;2.55;;
78346;SDS011;67803;41.330;69.282;2023-07-28T13:37:03;11.00;;;2.90;;
78346;SDS011;67803;41.330;69.282;2023-07-28T13:39:33;9.07;;;2.67;;
78346;SDS011;67803;41.330;69.282;2023-07-28T13:42:04;12.63;;;2.90;;
78346;SDS011;67803;41.330;69.282;2023-07-28T13:44:35;12.30;;;3.13;;
78346;SDS011;67803;41.330;69.282;2023-07-28T13:47:06;8.40;;;3.00;;
78346;SDS011;67803;41.330;69.282;2023-07-28T13:49:37;14.43;;;3.03;;
78346;SDS011;67803;41.330;69.282;2023-07-28T13:52:09;11.07;;;2.90;;
78346;SDS011;67803;41.330;69.282;2023-07-28T13:54:39;13.13;;;3.13;;
78346;SDS011;67803;41.330;69.282;2023-07-28T13:57:11;10.18;;;2.88;;
78346;SDS011;67803;41.330;69.282;2023-07-28T13:59:41;10.15;;;3.20;;
78346;SDS011;67803;41.330;69.282;2023-07-28T14:02:12;10.43;;;3.13;;
78346;SDS011;67803;41.330;69.282;2023-07-28T14:04:42;16.58;;;3.00;;
78346;SDS011;67803;41.330;69.282;2023-07-28T14:07:13;13.40;;;3.60;;
78346;SDS011;67803;41.330;69.282;2023-07-28T14:09:43;9.63;;;2.85;;
78346;SDS011;67803;41.330;69.282;2023-07-28T14:12:14;13.65;;;3.63;;
78346;SDS011;67803;41.330;69.282;2023-07-28T14:14:44;10.98;;;3.50;;
78346;SDS011;67803;41.330;69.282;2023-07-28T14:17:15;10.23;;;3.50;;
78346;SDS011;67803;41.330;69.282;2023-07-28T14:19:45;8.30;;;3.85;;
78346;SDS011;67803;41.330;69.282;2023-07-28T14:22:17;8.02;;;3.22;;
78346;SDS011;67803;41.330;69.282;2023-07-28T14:24:47;13.50;;;3.40;;
78346;SDS011;67803;41.330;69.282;2023-07-28T14:27:18;8.25;;;3.67;;
78346;SDS011;67803;41.330;69.282;2023-07-28T14:29:48;11.30;;;3.88;;
78346;SDS011;67803;41.330;69.282;2023-07-28T14:32:18;10.82;;;3.60;;
78346;SDS011;67803;41.330;69.282;2023-07-28T14:34:50;11.40;;;3.53;;
78346;SDS011;67803;41.330;69.282;2023-07-28T14:37:20;14.70;;;4.28;;
78346;SDS011;67803;41.330;69.282;2023-07-28T14:39:52;11.73;;;4.03;;
78346;SDS011;67803;41.330;69.282;2023-07-28T14:42:23;11.85;;;3.50;;
78346;SDS011;67803;41.330;69.282;2023-07-28T14:44:53;13.02;;;4.13;;
78346;SDS011;67803;41.330;69.282;2023-07-28T14:47:24;12.32;;;3.70;;
78346;SDS011;67803;41.330;69.282;2023-07-28T14:49:55;13.23;;;4.45;;
78346;SDS011;67803;41.330;69.282;2023-07-28T14:52:25;13.95;;;3.63;;
78346;SDS011;67803;41.330;69.282;2023-07-28T14:54:56;16.58;;;5.03;;
78346;SDS011;67803;41.330;69.282;2023-07-28T14:57:26;16.20;;;5.30;;
78346;SDS011;67803;41.330;69.282;2023-07-28T14:59:57;19.52;;;5.35;;
78346;SDS011;67803;41.330;69.282;2023-07-28T15:02:27;24.00;;;6.97;;
78346;SDS011;67803;41.330;69.282;2023-07-28T15:04:58;19.42;;;8.13;;